CheckWX is a tool to help pilots better visualize weather data.  It is not intended as a substitute for an official pre-flight weather briefing.

02:06:01 UTC

LFRJ TAF
Landivisiau Air Base Airport
Landivisiau, France
TAF LFRJ 182000Z 1821/1906 30005KT 9999 BKN015 BECMG 1821/1823 BKN008 TEMPO 1821/1903 4000 RADZ BKN003 PROB40 TEMPO 1903/1906 3000 BR

Mar-18@
21:00 UTC

Mar-18 @ 21:00 UTC

Mar-19@
06:00 UTC

Mar-19 @ 06:00 UTC

TAF LFRJ 182000Z 1821/1906 30005KT 9999 BKN015
Wind
  • 300° at 5 KTS
Cloud Levels
  • Broken at 1,500' AGL

Mar-18@
21:00 UTC

Mar-18 @ 21:00 UTC

Mar-19@
03:00 UTC

Mar-19 @ 03:00 UTC

TEMPO 1821/1903 4000 RADZ BKN003

Temporary

Temporary Changes expected for less than half the time period

Conditions
Rain, Drizzle
Cloud Levels
  • Broken at 300' AGL

Mar-18@
21:00 UTC

Mar-18 @ 21:00 UTC

Mar-19@
06:00 UTC

Mar-19 @ 06:00 UTC

BECMG 1821/1823 BKN008

Becoming

Becoming Conditions expected by Mon, Mar 18, 2019 @ 23:00 UTC

Wind
  • 300° at 5 KTS
Cloud Levels
  • Broken at 800' AGL

Mar-19@
03:00 UTC

Mar-19 @ 03:00 UTC

Mar-19@
06:00 UTC

Mar-19 @ 06:00 UTC

PROB40 TEMPO 1903/1906 3000 BR

Temporary - 40% Likelihood

Temporary - 40% Likelihood during this time.

Conditions
Mist